createdAt,value
2023-03-05T00:00:18.790Z,4.65
2023-03-05T00:01:39.904Z,4.64
2023-03-05T00:03:07.088Z,4.65
2023-03-05T00:04:28.449Z,4.64
2023-03-05T00:05:50.910Z,4.57
2023-03-05T00:07:14.437Z,4.64
2023-03-05T00:08:36.071Z,4.63
2023-03-05T00:10:01.095Z,4.47
2023-03-05T00:11:24.396Z,4.62
2023-03-05T00:12:46.844Z,4.63
2023-03-05T00:14:09.077Z,4.63
2023-03-05T00:15:31.368Z,4.63
2023-03-05T00:16:52.755Z,4.64
2023-03-05T00:18:16.702Z,4.51
2023-03-05T00:19:39.028Z,4.66
2023-03-05T00:21:00.694Z,4.59
2023-03-05T00:22:22.767Z,4.62
2023-03-05T00:23:44.123Z,4.65
2023-03-05T00:25:07.406Z,4.65
2023-03-05T00:26:29.402Z,4.65
2023-03-05T00:27:51.978Z,4.65
2023-03-05T00:29:16.457Z,4.64
2023-03-05T00:30:41.551Z,4.62
2023-03-05T00:32:06.867Z,4.59
2023-03-05T00:33:30.595Z,4.66
2023-03-05T00:34:53.231Z,4.58
2023-03-05T00:36:14.280Z,4.65
2023-03-05T00:37:36.603Z,4.63
2023-03-05T00:38:58.232Z,4.61
2023-03-05T00:40:21.124Z,4.66
2023-03-05T00:41:43.627Z,4.65
2023-03-05T00:43:05.031Z,4.57
2023-03-05T00:44:27.587Z,4.49
2023-03-05T00:45:48.682Z,4.59
2023-03-05T00:47:11.111Z,4.65
2023-03-05T00:48:33.585Z,4.66
2023-03-05T00:49:56.071Z,4.66
2023-03-05T00:51:17.154Z,4.63
2023-03-05T00:52:39.662Z,4.62
2023-03-05T00:54:01.285Z,4.63
2023-03-05T00:55:22.685Z,4.64
2023-03-05T00:56:45.439Z,4.63
2023-03-05T00:58:07.398Z,4.54
2023-03-05T00:59:29.728Z,4.59
2023-03-05T01:00:50.923Z,4.62
2023-03-05T01:02:13.450Z,4.56
2023-03-05T01:03:36.429Z,4.62
2023-03-05T01:04:58.839Z,4.60
2023-03-05T01:06:21.119Z,4.59
2023-03-05T01:07:42.152Z,4.61
2023-03-05T01:09:04.706Z,4.57
2023-03-05T01:10:26.921Z,4.61
2023-03-05T01:11:49.828Z,4.61
2023-03-05T01:13:10.947Z,4.61
2023-03-05T01:14:33.131Z,4.59
2023-03-05T01:15:53.890Z,4.58
2023-03-05T01:17:16.341Z,4.58
2023-03-05T01:18:40.961Z,4.57
2023-03-05T01:20:02.142Z,4.56
2023-03-05T01:21:24.581Z,4.54
2023-03-05T01:22:45.873Z,4.50
2023-03-05T01:24:09.062Z,4.57
2023-03-05T01:25:31.461Z,4.50
2023-03-05T01:26:59.357Z,4.56
2023-03-05T01:28:21.853Z,4.56
2023-03-05T01:29:44.003Z,4.53
2023-03-05T01:31:10.126Z,4.58
2023-03-05T01:32:31.091Z,4.58
2023-03-05T01:33:55.682Z,4.57
2023-03-05T01:35:20.611Z,4.57
2023-03-05T01:36:43.594Z,4.57
2023-03-05T01:38:04.583Z,4.56
2023-03-05T01:39:26.743Z,4.58
2023-03-05T01:40:47.941Z,4.58
2023-03-05T01:42:10.337Z,4.55
2023-03-05T01:43:31.679Z,4.55
2023-03-05T01:45:06.663Z,4.55
2023-03-05T01:46:30.973Z,4.51
2023-03-05T01:47:53.262Z,4.54
2023-03-05T01:49:21.265Z,4.44
2023-03-05T01:50:43.322Z,4.51
2023-03-05T01:52:09.109Z,4.53
2023-03-05T01:53:31.058Z,4.53
2023-03-05T01:54:57.290Z,4.50
2023-03-05T01:56:18.813Z,4.51
2023-03-05T01:57:45.605Z,4.52
2023-03-05T01:59:06.855Z,4.43
2023-03-05T02:00:33.474Z,4.51
2023-03-05T02:01:59.138Z,4.51
2023-03-05T02:03:23.944Z,4.50
2023-03-05T02:04:52.196Z,4.50
2023-03-05T02:06:14.107Z,4.38
2023-03-05T02:07:38.124Z,4.44
2023-03-05T02:09:00.457Z,4.36
2023-03-05T02:10:26.315Z,4.42
2023-03-05T02:11:48.240Z,4.43
2023-03-05T02:13:14.015Z,4.42
2023-03-05T02:14:37.514Z,4.38
2023-03-05T02:16:01.783Z,4.40
2023-03-05T02:17:24.275Z,4.34
2023-03-05T02:18:45.575Z,4.39
2023-03-05T02:20:12.877Z,4.38
2023-03-05T02:21:41.712Z,4.37
2023-03-05T02:23:02.778Z,4.37
2023-03-05T02:24:37.164Z,4.36
2023-03-05T02:25:58.487Z,4.34
2023-03-05T02:27:24.561Z,4.35
2023-03-05T02:28:51.885Z,4.34
2023-03-05T02:30:14.565Z,4.24
2023-03-05T02:31:39.306Z,4.34
2023-03-05T02:33:01.574Z,4.30
2023-03-05T02:34:24.131Z,4.33
2023-03-05T02:35:47.617Z,4.31
2023-03-05T02:37:10.772Z,4.31
2023-03-05T02:38:34.664Z,4.30
2023-03-05T02:39:56.178Z,4.25
2023-03-05T02:41:18.894Z,4.27
2023-03-05T02:42:41.986Z,4.28
2023-03-05T02:44:04.691Z,4.24
2023-03-05T02:45:26.797Z,4.26
2023-03-05T02:46:48.453Z,4.22
2023-03-05T02:48:10.376Z,4.22
2023-03-05T02:49:32.875Z,4.18
2023-03-05T02:50:54.464Z,4.18
2023-03-05T02:52:18.140Z,4.16
2023-03-05T02:53:39.420Z,4.13
2023-03-05T02:55:01.814Z,4.10
2023-03-05T02:56:24.869Z,3.89
2023-03-05T02:57:48.924Z,4.06
2023-03-05T02:59:11.089Z,4.00
2023-03-05T03:00:32.252Z,4.00
2023-03-05T03:01:54.734Z,3.96
2023-03-05T03:03:15.911Z,3.93
2023-03-05T03:04:38.380Z,3.88
2023-03-05T03:05:59.985Z,3.84
2023-03-05T03:07:23.906Z,3.86
2023-03-05T03:08:45.285Z,3.82
2023-03-05T03:10:08.986Z,3.81
2023-03-05T03:11:30.284Z,3.81
2023-03-05T03:12:52.903Z,3.75
2023-03-05T03:14:15.126Z,3.77
2023-03-05T03:15:38.055Z,3.73
2023-03-05T03:17:00.768Z,3.72
2023-03-05T03:18:24.546Z,3.68
2023-03-05T03:19:46.733Z,3.69
2023-03-05T03:21:08.594Z,3.65
2023-03-05T03:22:31.458Z,3.63
2023-03-05T03:23:54.029Z,3.65
2023-03-05T03:25:16.296Z,3.63
2023-03-05T03:26:40.840Z,3.62
2023-03-05T03:28:02.371Z,3.58
2023-03-05T03:29:27.916Z,3.55
2023-03-05T03:30:49.096Z,3.58
2023-03-05T03:32:11.627Z,3.57
2023-03-05T03:33:32.853Z,3.56
2023-03-05T03:34:55.184Z,3.52
2023-03-05T03:36:17.723Z,3.50
2023-03-05T03:37:40.873Z,3.54
2023-03-05T03:39:03.776Z,3.50
2023-03-05T03:40:26.192Z,3.45
2023-03-05T03:41:50.728Z,3.51
2023-03-05T03:43:11.854Z,3.51
2023-03-05T03:44:34.431Z,3.51
2023-03-05T03:45:55.641Z,3.49
2023-03-05T03:47:18.358Z,3.49
2023-03-05T03:48:43.326Z,3.36
2023-03-05T03:50:05.389Z,3.48
2023-03-05T03:51:27.265Z,3.43
2023-03-05T03:52:51.037Z,3.42
2023-03-05T03:54:13.723Z,3.40
2023-03-05T03:55:36.495Z,3.44
2023-03-05T03:56:58.970Z,3.40
2023-03-05T03:58:20.128Z,3.45
2023-03-05T03:59:42.601Z,3.45
2023-03-05T04:01:04.816Z,3.44
2023-03-05T04:02:26.635Z,3.43
2023-03-05T04:03:49.183Z,3.43
2023-03-05T04:05:12.052Z,3.40
2023-03-05T04:06:35.164Z,3.42
2023-03-05T04:07:58.684Z,3.46
2023-03-05T04:09:20.953Z,3.50
2023-03-05T04:10:42.053Z,3.47
2023-03-05T04:12:04.553Z,3.50
2023-03-05T04:13:26.194Z,3.50
2023-03-05T04:14:49.180Z,3.49
2023-03-05T04:16:10.425Z,3.43
2023-03-05T04:17:34.317Z,3.40
2023-03-05T04:18:56.393Z,3.49
2023-03-05T04:20:18.164Z,3.50
2023-03-05T04:21:41.470Z,3.49
2023-03-05T04:23:06.170Z,3.43
2023-03-05T04:24:27.539Z,3.49
2023-03-05T04:25:50.068Z,3.47
2023-03-05T04:27:13.145Z,3.48
2023-03-05T04:28:35.089Z,3.48
2023-03-05T04:29:57.379Z,3.44
2023-03-05T04:31:20.762Z,3.42
2023-03-05T04:32:43.050Z,3.47
2023-03-05T04:34:05.209Z,3.47
2023-03-05T04:35:28.032Z,3.42
2023-03-05T04:36:50.760Z,3.45
2023-03-05T04:38:14.965Z,3.45
2023-03-05T04:39:37.203Z,3.47
2023-03-05T04:40:58.787Z,3.47
2023-03-05T04:42:21.474Z,3.46
2023-03-05T04:43:43.857Z,3.46
2023-03-05T04:45:07.869Z,3.48
2023-03-05T04:46:29.230Z,3.47
2023-03-05T04:47:51.432Z,3.47
2023-03-05T04:49:13.271Z,3.49
2023-03-05T04:50:35.420Z,3.48
2023-03-05T04:51:57.903Z,3.49
2023-03-05T04:53:21.808Z,3.49
2023-03-05T04:54:45.943Z,3.44
2023-03-05T04:56:09.320Z,3.39
2023-03-05T04:57:30.510Z,3.49
2023-03-05T04:58:52.677Z,3.48
2023-03-05T05:00:16.990Z,3.44
2023-03-05T05:01:39.369Z,3.43
2023-03-05T05:03:01.520Z,3.47
2023-03-05T05:04:22.994Z,3.45
2023-03-05T05:05:45.410Z,3.45
2023-03-05T05:07:07.750Z,3.43
2023-03-05T05:08:31.324Z,3.43
2023-03-05T05:09:52.579Z,3.42
2023-03-05T05:11:16.137Z,3.35
2023-03-05T05:12:38.348Z,3.36
2023-03-05T05:13:59.582Z,3.38
2023-03-05T05:15:25.204Z,3.33
2023-03-05T05:16:47.496Z,3.35
2023-03-05T05:18:08.748Z,3.40
2023-03-05T05:19:31.133Z,3.41
2023-03-05T05:20:53.405Z,3.40
2023-03-05T05:22:15.669Z,3.36
2023-03-05T05:23:39.978Z,3.41
2023-03-05T05:25:01.335Z,3.37
2023-03-05T05:26:23.304Z,3.41
2023-03-05T05:27:45.644Z,3.38
2023-03-05T05:29:07.863Z,3.40
2023-03-05T05:30:30.057Z,3.41
2023-03-05T05:31:53.382Z,3.41
2023-03-05T05:33:15.096Z,3.42
2023-03-05T05:34:37.584Z,3.39
2023-03-05T05:35:58.630Z,3.44
2023-03-05T05:37:21.121Z,3.37
2023-03-05T05:38:45.445Z,3.41
2023-03-05T05:40:08.428Z,3.44
2023-03-05T05:41:30.769Z,3.43
2023-03-05T05:42:51.821Z,3.44
2023-03-05T05:44:14.425Z,3.43
2023-03-05T05:45:38.892Z,3.38
2023-03-05T05:47:01.071Z,3.48
2023-03-05T05:48:23.155Z,3.49
2023-03-05T05:49:45.755Z,3.48
2023-03-05T05:51:09.617Z,3.47
2023-03-05T05:52:31.183Z,3.49
2023-03-05T05:53:54.926Z,3.47
2023-03-05T05:55:17.068Z,3.53
2023-03-05T05:56:38.077Z,3.54
2023-03-05T05:58:00.586Z,3.53
2023-03-05T05:59:21.731Z,3.54
2023-03-05T06:00:44.186Z,3.55
2023-03-05T06:02:08.019Z,3.56
2023-03-05T06:03:30.458Z,3.57
2023-03-05T06:04:51.695Z,3.55
2023-03-05T06:06:16.335Z,3.58
2023-03-05T06:07:39.024Z,3.52
2023-03-05T06:09:03.190Z,3.59
2023-03-05T06:10:25.622Z,3.40
2023-03-05T06:11:51.713Z,3.56
2023-03-05T06:13:21.027Z,3.64
2023-03-05T06:14:43.151Z,3.64
2023-03-05T06:16:08.328Z,3.59
2023-03-05T06:17:31.207Z,3.61
2023-03-05T06:18:53.319Z,3.60
2023-03-05T06:20:16.153Z,3.64
2023-03-05T06:21:40.733Z,3.59
2023-03-05T06:23:02.846Z,3.53
2023-03-05T06:24:26.718Z,3.60
2023-03-05T06:25:48.205Z,3.59
2023-03-05T06:27:10.805Z,3.56
2023-03-05T06:28:33.089Z,3.57
2023-03-05T06:29:56.775Z,3.52
2023-03-05T06:31:21.973Z,3.51
2023-03-05T06:32:44.298Z,3.48
2023-03-05T06:34:06.025Z,3.50
2023-03-05T06:35:27.411Z,3.51
2023-03-05T06:36:50.163Z,3.51
2023-03-05T06:38:12.287Z,3.50
2023-03-05T06:39:35.395Z,3.45
2023-03-05T06:41:01.770Z,3.42
2023-03-05T06:42:24.327Z,3.41
2023-03-05T06:43:47.519Z,3.43
2023-03-05T06:45:11.426Z,3.42
2023-03-05T06:46:34.889Z,3.41
2023-03-05T06:47:56.351Z,3.40
2023-03-05T06:49:21.299Z,3.40
2023-03-05T06:50:42.417Z,3.39
2023-03-05T06:52:05.015Z,3.40
2023-03-05T06:53:28.382Z,3.44
2023-03-05T06:54:52.943Z,3.48
2023-03-05T06:56:16.893Z,3.52
2023-03-05T06:57:39.406Z,3.53
2023-03-05T06:59:00.597Z,3.42
2023-03-05T07:00:29.796Z,3.57
2023-03-05T07:01:52.194Z,3.57
2023-03-05T07:03:14.823Z,3.66
2023-03-05T07:04:37.288Z,3.67
2023-03-05T07:05:58.624Z,3.69
2023-03-05T07:07:21.114Z,3.78
2023-03-05T07:08:44.798Z,3.83
2023-03-05T07:10:10.560Z,3.89
2023-03-05T07:11:33.509Z,3.89
2023-03-05T07:12:54.477Z,3.98
2023-03-05T07:14:16.869Z,4.05
2023-03-05T07:15:39.456Z,4.08
2023-03-05T07:17:01.738Z,4.10
2023-03-05T07:18:23.988Z,4.17
2023-03-05T07:19:46.276Z,4.24
2023-03-05T07:21:09.080Z,4.31
2023-03-05T07:22:31.170Z,4.36
2023-03-05T07:23:54.285Z,4.42
2023-03-05T07:25:21.616Z,4.46
2023-03-05T07:26:43.705Z,4.49
2023-03-05T07:28:07.284Z,4.50
2023-03-05T07:29:29.139Z,4.50
2023-03-05T07:30:57.883Z,4.53
2023-03-05T07:32:20.575Z,4.54
2023-03-05T07:33:42.079Z,4.53
2023-03-05T07:35:07.963Z,4.57
2023-03-05T07:36:29.921Z,4.62
2023-03-05T07:37:52.657Z,4.62
2023-03-05T07:39:15.038Z,4.67
2023-03-05T07:40:37.516Z,4.70
2023-03-05T07:41:59.666Z,4.70
2023-03-05T07:43:26.847Z,4.72
2023-03-05T07:44:49.689Z,4.75
2023-03-05T07:46:13.382Z,4.78
2023-03-05T07:47:35.623Z,4.83
2023-03-05T07:48:58.471Z,4.89
2023-03-05T07:50:21.254Z,4.96
2023-03-05T07:51:43.563Z,4.92
2023-03-05T07:53:05.881Z,5.04
2023-03-05T07:54:28.420Z,5.09
2023-03-05T07:55:50.883Z,5.14
2023-03-05T07:57:13.862Z,5.27
2023-03-05T07:58:36.368Z,5.29
2023-03-05T07:59:58.970Z,5.55
2023-03-05T08:01:21.247Z,5.68
2023-03-05T08:02:43.868Z,5.78
2023-03-05T08:04:07.922Z,5.94
2023-03-05T08:05:30.213Z,6.04
2023-03-05T08:06:52.534Z,6.20
2023-03-05T08:08:13.977Z,6.21
2023-03-05T08:09:36.193Z,6.26
2023-03-05T08:11:05.200Z,6.44
2023-03-05T08:12:27.596Z,6.53
2023-03-05T08:13:50.037Z,6.61
2023-03-05T08:15:13.368Z,6.69
2023-03-05T08:16:36.098Z,6.76
2023-03-05T08:17:58.492Z,6.80
2023-03-05T08:19:21.451Z,6.80
2023-03-05T08:20:44.177Z,6.88
2023-03-05T08:22:06.708Z,6.74
2023-03-05T08:23:28.994Z,6.61
2023-03-05T08:24:52.247Z,6.43
2023-03-05T08:26:20.503Z,6.32
2023-03-05T08:27:43.931Z,6.20
2023-03-05T08:29:07.054Z,6.04
2023-03-05T08:30:28.204Z,6.07
2023-03-05T08:31:51.320Z,6.07
2023-03-05T08:33:12.887Z,6.13
2023-03-05T08:34:35.139Z,6.25
2023-03-05T08:35:56.111Z,6.33
2023-03-05T08:37:18.501Z,6.40
2023-03-05T08:38:40.140Z,6.44
2023-03-05T08:40:02.295Z,6.44
2023-03-05T08:41:25.269Z,6.52
2023-03-05T08:42:47.667Z,6.56
2023-03-05T08:44:09.470Z,6.58
2023-03-05T08:45:31.949Z,6.60
2023-03-05T08:46:56.066Z,6.66
2023-03-05T08:48:18.746Z,6.72
2023-03-05T08:49:41.212Z,6.73
2023-03-05T08:51:08.254Z,6.79
2023-03-05T08:52:30.718Z,6.78
2023-03-05T08:53:53.712Z,6.89
2023-03-05T08:55:14.985Z,7.01
2023-03-05T08:56:39.368Z,7.14
2023-03-05T08:58:01.716Z,7.39
2023-03-05T08:59:24.323Z,7.58
2023-03-05T09:00:45.462Z,7.68
2023-03-05T09:02:08.541Z,7.76
2023-03-05T09:03:31.165Z,7.85
2023-03-05T09:04:52.541Z,7.87
2023-03-05T09:06:15.130Z,7.98
2023-03-05T09:07:37.940Z,7.92
2023-03-05T09:09:00.136Z,7.81
2023-03-05T09:10:22.861Z,7.84
2023-03-05T09:11:46.602Z,7.81
2023-03-05T09:13:08.214Z,7.72
2023-03-05T09:14:30.654Z,7.67
2023-03-05T09:15:56.167Z,7.55
2023-03-05T09:17:18.381Z,7.51
2023-03-05T09:18:41.143Z,7.39
2023-03-05T09:20:03.791Z,7.21
2023-03-05T09:21:24.894Z,7.06
2023-03-05T09:22:47.208Z,6.85
2023-03-05T09:24:12.308Z,6.71
2023-03-05T09:25:34.831Z,6.52
2023-03-05T09:27:01.749Z,6.54
2023-03-05T09:28:24.583Z,6.55
2023-03-05T09:29:46.793Z,6.55
2023-03-05T09:31:10.932Z,6.61
2023-03-05T09:32:33.198Z,6.72
2023-03-05T09:33:55.398Z,6.86
2023-03-05T09:35:17.805Z,7.11
2023-03-05T09:36:40.055Z,7.37
2023-03-05T09:38:02.541Z,7.55
2023-03-05T09:39:24.977Z,7.73
2023-03-05T09:40:59.453Z,7.89
2023-03-05T09:42:47.193Z,7.83
2023-03-05T09:44:23.949Z,7.76
2023-03-05T09:46:00.494Z,7.84
2023-03-05T09:47:39.732Z,7.83
2023-03-05T09:49:11.920Z,7.87
2023-03-05T09:50:41.514Z,7.80
2023-03-05T09:52:12.633Z,7.85
2023-03-05T09:53:45.249Z,7.85
2023-03-05T09:55:14.905Z,7.74
2023-03-05T09:56:41.180Z,7.69
2023-03-05T09:58:09.479Z,7.73
2023-03-05T09:59:40.268Z,7.77
2023-03-05T10:01:06.567Z,7.84
2023-03-05T10:02:33.748Z,7.96
2023-03-05T10:03:58.373Z,8.16
2023-03-05T10:05:26.418Z,8.40
2023-03-05T10:06:54.513Z,8.54
2023-03-05T10:08:20.703Z,8.66
2023-03-05T10:09:50.301Z,8.83
2023-03-05T10:11:27.694Z,9.02
2023-03-05T10:12:53.753Z,9.13
2023-03-05T10:14:25.463Z,9.24
2023-03-05T10:15:55.059Z,9.25
2023-03-05T10:17:46.375Z,9.26
2023-03-05T10:19:16.209Z,9.36
2023-03-05T10:20:58.252Z,9.47
2023-03-05T10:22:24.153Z,9.56
2023-03-05T10:24:00.396Z,9.81
2023-03-05T10:25:27.927Z,10.03
2023-03-05T10:27:03.028Z,10.51
2023-03-05T10:28:35.546Z,10.83
2023-03-05T10:30:07.860Z,10.73
2023-03-05T10:31:48.973Z,11.24
2023-03-05T10:33:26.281Z,11.07
2023-03-05T10:35:17.162Z,11.17
2023-03-05T10:37:09.937Z,10.97
2023-03-05T10:39:02.110Z,10.86
2023-03-05T10:40:32.936Z,10.55
2023-03-05T10:42:06.215Z,10.34
2023-03-05T10:43:39.690Z,9.96
2023-03-05T10:45:16.057Z,9.59
2023-03-05T10:46:41.199Z,9.61
2023-03-05T10:48:13.173Z,9.45
2023-03-05T10:49:38.431Z,9.24
2023-03-05T10:51:06.370Z,9.08
2023-03-05T10:52:38.396Z,8.82
2023-03-05T10:54:09.922Z,8.55
2023-03-05T10:55:32.347Z,8.25
2023-03-05T10:57:05.529Z,8.35
2023-03-05T10:58:29.005Z,8.12
2023-03-05T10:59:54.184Z,7.89
2023-03-05T11:01:26.668Z,7.71
2023-03-05T11:03:00.041Z,7.66
2023-03-05T11:04:37.483Z,7.57
2023-03-05T11:06:02.916Z,7.41
2023-03-05T11:07:39.786Z,7.17
2023-03-05T11:09:24.399Z,7.07
2023-03-05T11:10:47.413Z,7.02
2023-03-05T11:12:17.932Z,6.90
2023-03-05T11:13:51.462Z,6.95
2023-03-05T11:15:28.081Z,7.00
2023-03-05T11:16:52.480Z,7.02
2023-03-05T11:18:24.313Z,7.05
2023-03-05T11:19:46.930Z,7.04
2023-03-05T11:21:13.189Z,6.98
2023-03-05T11:22:45.630Z,6.92
2023-03-05T11:24:16.137Z,6.98
2023-03-05T11:29:15.540Z,6.87
2023-03-05T11:30:40.395Z,7.06
2023-03-05T11:32:22.492Z,6.75
2023-03-05T11:33:57.372Z,7.00
2023-03-05T11:35:43.684Z,6.92
2023-03-05T11:37:08.264Z,6.97
2023-03-05T11:38:31.572Z,7.31
2023-03-05T11:42:34.498Z,7.30
2023-03-05T11:44:00.874Z,7.63
2023-03-05T11:45:25.662Z,7.93
2023-03-05T11:46:50.618Z,8.02
2023-03-05T11:48:22.700Z,8.39
2023-03-05T11:49:47.828Z,8.49
2023-03-05T11:51:18.247Z,8.65
2023-03-05T11:52:48.155Z,8.73
2023-03-05T11:54:17.838Z,8.75
2023-03-05T11:55:44.015Z,8.88
2023-03-05T11:57:11.778Z,8.62
2023-03-05T11:58:41.348Z,8.66
2023-03-05T12:00:11.769Z,8.81
2023-03-05T12:01:42.401Z,8.61
2023-03-05T12:03:14.787Z,8.54
2023-03-05T12:04:42.711Z,8.43
2023-03-05T12:06:34.232Z,8.44
2023-03-05T12:08:08.440Z,8.33
2023-03-05T12:09:42.413Z,8.07
2023-03-05T12:11:11.194Z,8.12
2023-03-05T12:12:47.578Z,7.84
2023-03-05T12:14:21.102Z,7.69
2023-03-05T12:15:51.220Z,7.86
2023-03-05T12:17:23.807Z,7.92
2023-03-05T12:18:53.325Z,7.89
2023-03-05T12:20:26.004Z,7.95
2023-03-05T12:21:50.868Z,7.95
2023-03-05T12:23:16.027Z,8.06
2023-03-05T12:24:40.828Z,7.95
2023-03-05T12:26:03.168Z,8.24
2023-03-05T12:27:37.001Z,8.32
2023-03-05T12:28:58.972Z,8.38
2023-03-05T12:31:01.708Z,8.50
2023-03-05T12:33:01.151Z,8.69
2023-03-05T12:34:49.752Z,8.82
2023-03-05T12:36:39.749Z,8.92
2023-03-05T12:38:30.565Z,8.94
2023-03-05T12:40:12.940Z,8.98
2023-03-05T12:41:35.561Z,8.88
2023-03-05T12:43:00.331Z,8.79
2023-03-05T12:44:27.005Z,8.81
2023-03-05T12:45:53.052Z,8.68
2023-03-05T12:47:23.862Z,8.54
2023-03-05T12:48:49.775Z,8.19
2023-03-05T12:50:45.408Z,8.17
2023-03-05T12:52:29.104Z,7.66
2023-03-05T12:53:58.002Z,7.78
2023-03-05T12:55:26.345Z,7.41
2023-03-05T12:56:49.443Z,7.64
2023-03-05T12:58:21.729Z,7.19
2023-03-05T12:59:49.167Z,7.26
2023-03-05T13:01:25.219Z,7.16
2023-03-05T13:03:04.276Z,6.64
2023-03-05T13:04:44.767Z,6.85
2023-03-05T13:06:11.315Z,6.62
2023-03-05T13:07:39.165Z,6.47
2023-03-05T13:09:08.799Z,6.36
2023-03-05T13:10:34.532Z,6.37
2023-03-05T13:12:03.125Z,6.28
2023-03-05T13:13:37.582Z,5.92
2023-03-05T13:15:09.442Z,5.98
2023-03-05T13:16:48.165Z,5.79
2023-03-05T13:18:26.363Z,5.67
2023-03-05T13:19:52.221Z,5.67
2023-03-05T13:21:20.958Z,5.45
2023-03-05T13:22:51.779Z,5.47
2023-03-05T13:24:26.440Z,5.65
2023-03-05T13:26:18.340Z,5.33
2023-03-05T13:27:42.673Z,5.39
2023-03-05T13:29:50.449Z,5.12
2023-03-05T13:34:48.309Z,4.90
2023-03-05T13:36:42.511Z,4.63
2023-03-05T13:38:44.087Z,4.73
2023-03-05T13:42:58.046Z,4.66
2023-03-05T13:44:56.675Z,4.70
2023-03-05T13:47:04.716Z,4.67
2023-03-05T13:49:12.582Z,4.42
2023-03-05T13:50:51.854Z,4.42
2023-03-05T13:52:29.792Z,4.39
2023-03-05T13:54:27.988Z,4.29
2023-03-05T13:55:52.442Z,4.14
2023-03-05T13:57:40.838Z,4.43
2023-03-05T13:59:10.653Z,4.19
2023-03-05T14:00:46.338Z,4.10
2023-03-05T14:02:38.156Z,4.34
2023-03-05T14:04:20.089Z,4.47
2023-03-05T14:05:45.561Z,4.31
2023-03-05T14:07:10.944Z,4.19
2023-03-05T14:08:37.024Z,4.27
2023-03-05T14:10:03.404Z,4.20
2023-03-05T14:11:26.062Z,4.63
2023-03-05T14:12:55.745Z,4.67
2023-03-05T14:23:47.174Z,4.99
2023-03-05T14:28:56.431Z,5.30
2023-03-05T14:30:26.394Z,5.00
2023-03-05T14:31:55.840Z,4.97
2023-03-05T14:33:37.172Z,4.99
2023-03-05T14:43:54.065Z,5.16
2023-03-05T14:47:31.814Z,5.23
2023-03-05T14:51:54.938Z,5.06
2023-03-05T14:56:29.193Z,5.21
2023-03-05T14:58:22.015Z,4.89
2023-03-05T14:59:49.709Z,5.13
2023-03-05T15:01:27.741Z,4.90
2023-03-05T15:05:43.825Z,5.12
2023-03-05T15:07:09.414Z,5.07
2023-03-05T15:08:33.875Z,5.21
2023-03-05T15:10:00.168Z,5.16
2023-03-05T15:11:22.859Z,5.17
2023-03-05T15:12:45.663Z,5.27
2023-03-05T15:14:08.195Z,5.14
2023-03-05T15:15:36.677Z,5.34
2023-03-05T15:16:59.030Z,5.09
2023-03-05T15:18:23.956Z,5.11
2023-03-05T15:19:47.280Z,5.24
2023-03-05T15:21:09.947Z,5.27
2023-03-05T15:22:32.530Z,5.13
2023-03-05T15:23:55.116Z,5.07
2023-03-05T15:25:17.894Z,4.91
2023-03-05T15:26:40.727Z,5.19
2023-03-05T15:28:03.491Z,5.17
2023-03-05T15:29:26.112Z,5.14
2023-03-05T15:30:49.905Z,5.14
2023-03-05T15:32:12.364Z,5.03
2023-03-05T15:33:35.689Z,5.02
2023-03-05T15:34:58.611Z,5.06
2023-03-05T15:36:24.077Z,5.07
2023-03-05T15:37:46.428Z,5.06
2023-03-05T15:39:09.001Z,4.95
2023-03-05T15:40:32.351Z,4.77
2023-03-05T15:41:55.832Z,4.96
2023-03-05T15:43:22.316Z,4.94
2023-03-05T15:44:48.217Z,4.65
2023-03-05T15:46:15.267Z,4.79
2023-03-05T15:47:37.841Z,4.54
2023-03-05T15:49:03.473Z,4.79
2023-03-05T15:50:25.920Z,4.85
2023-03-05T15:52:02.130Z,4.67
2023-03-05T15:53:24.476Z,4.57
2023-03-05T15:54:47.034Z,4.66
2023-03-05T15:56:22.560Z,4.61
2023-03-05T15:57:47.221Z,4.64
2023-03-05T15:59:14.604Z,4.75
2023-03-05T16:00:40.428Z,4.44
2023-03-05T16:02:08.653Z,4.57
2023-03-05T16:04:01.029Z,4.49
2023-03-05T16:05:24.133Z,4.53
2023-03-05T16:06:50.998Z,4.68
2023-03-05T16:08:17.947Z,4.31
2023-03-05T16:09:47.057Z,4.30
2023-03-05T16:11:25.742Z,4.50
2023-03-05T16:12:57.055Z,4.22
2023-03-05T16:14:33.313Z,4.45
2023-03-05T16:16:00.696Z,4.49
2023-03-05T16:17:25.702Z,4.58
2023-03-05T16:18:49.454Z,4.44
2023-03-05T16:20:33.360Z,4.22
2023-03-05T16:21:59.299Z,4.24
2023-03-05T16:23:25.205Z,4.31
2023-03-05T16:24:49.896Z,4.52
2023-03-05T16:26:12.950Z,4.54
2023-03-05T16:27:36.153Z,4.37
2023-03-05T16:28:58.703Z,4.53
2023-03-05T16:30:21.725Z,4.47
2023-03-05T16:31:45.533Z,4.46
2023-03-05T16:33:10.089Z,4.22
2023-03-05T16:34:34.647Z,4.43
2023-03-05T16:36:21.009Z,4.43
2023-03-05T16:37:43.772Z,4.38
2023-03-05T16:39:07.073Z,4.40
2023-03-05T16:40:44.478Z,4.35
2023-03-05T16:42:13.125Z,4.34
2023-03-05T16:43:35.577Z,4.31
2023-03-05T16:44:58.783Z,4.32
2023-03-05T16:46:21.485Z,4.34
2023-03-05T16:47:43.715Z,4.32
2023-03-05T16:49:07.538Z,4.31
2023-03-05T16:50:30.080Z,4.27
2023-03-05T16:51:52.264Z,4.29
2023-03-05T16:53:14.911Z,4.28
2023-03-05T16:54:37.134Z,4.26
2023-03-05T16:56:04.089Z,4.21
2023-03-05T16:57:29.163Z,4.20
2023-03-05T16:58:53.397Z,4.10
2023-03-05T17:00:18.879Z,4.10
2023-03-05T17:01:41.599Z,4.10
2023-03-05T17:03:04.137Z,4.07
2023-03-05T17:04:28.070Z,4.04
2023-03-05T17:05:49.604Z,3.97
2023-03-05T17:07:12.330Z,3.92
2023-03-05T17:08:36.622Z,3.88
2023-03-05T17:09:59.457Z,3.87
2023-03-05T17:11:25.874Z,3.77
2023-03-05T17:12:48.545Z,3.83
2023-03-05T17:14:14.980Z,3.73
2023-03-05T17:15:37.601Z,3.76
2023-03-05T17:17:01.427Z,3.77
2023-03-05T17:18:24.156Z,3.76
2023-03-05T17:19:48.469Z,3.71
2023-03-05T17:21:12.386Z,3.69
2023-03-05T17:22:34.596Z,3.72
2023-03-05T17:23:56.940Z,3.70
2023-03-05T17:25:19.423Z,3.68
2023-03-05T17:26:41.867Z,3.66
2023-03-05T17:28:07.575Z,3.65
2023-03-05T17:29:30.982Z,3.44
2023-03-05T17:30:53.297Z,3.61
2023-03-05T17:32:16.045Z,3.56
2023-03-05T17:33:38.887Z,3.59
2023-03-05T17:35:05.080Z,3.53
2023-03-05T17:36:43.613Z,3.48
2023-03-05T17:38:07.608Z,3.50
2023-03-05T17:39:29.880Z,3.40
2023-03-05T17:40:52.784Z,3.44
2023-03-05T17:42:15.971Z,3.44
2023-03-05T17:43:47.360Z,3.41
2023-03-05T17:45:10.972Z,3.41
2023-03-05T17:46:33.531Z,3.39
2023-03-05T17:47:57.736Z,3.40
2023-03-05T17:49:24.035Z,3.41
2023-03-05T17:50:48.038Z,3.38
2023-03-05T17:52:10.862Z,3.36
2023-03-05T17:53:33.670Z,3.34
2023-03-05T17:54:57.320Z,3.40
2023-03-05T17:56:22.268Z,3.38
2023-03-05T17:57:48.968Z,3.41
2023-03-05T17:59:11.621Z,3.41
2023-03-05T18:00:38.099Z,3.39
2023-03-05T18:02:00.875Z,3.34
2023-03-05T18:03:29.519Z,3.39
2023-03-05T18:04:52.265Z,3.24
2023-03-05T18:06:16.154Z,3.41
2023-03-05T18:07:39.391Z,3.40
2023-03-05T18:09:01.834Z,3.27
2023-03-05T18:10:27.677Z,3.37
2023-03-05T18:11:50.538Z,3.35
2023-03-05T18:13:13.244Z,3.35
2023-03-05T18:14:38.584Z,3.28
2023-03-05T18:16:01.793Z,3.34
2023-03-05T18:17:24.526Z,3.33
2023-03-05T18:18:47.141Z,3.28
2023-03-05T18:20:11.719Z,3.34
2023-03-05T18:21:36.004Z,3.33
2023-03-05T18:22:57.871Z,3.33
2023-03-05T18:24:25.418Z,3.21
2023-03-05T18:25:47.879Z,3.22
2023-03-05T18:27:10.568Z,3.22
2023-03-05T18:28:33.120Z,3.30
2023-03-05T18:29:55.779Z,3.24
2023-03-05T18:31:17.759Z,3.27
2023-03-05T18:32:40.859Z,3.22
2023-03-05T18:34:06.110Z,3.18
2023-03-05T18:35:35.564Z,3.20
2023-03-05T18:37:01.188Z,2.99
2023-03-05T18:38:25.792Z,3.17
2023-03-05T18:39:47.842Z,3.13
2023-03-05T18:41:10.566Z,3.11
2023-03-05T18:42:33.247Z,3.11
2023-03-05T18:43:56.003Z,3.11
2023-03-05T18:45:18.517Z,3.07
2023-03-05T18:46:41.407Z,3.03
2023-03-05T18:48:03.838Z,3.08
2023-03-05T18:49:29.780Z,3.06
2023-03-05T18:50:52.418Z,2.92
2023-03-05T18:52:16.230Z,2.95
2023-03-05T18:53:39.265Z,3.00
2023-03-05T18:55:02.671Z,3.02
2023-03-05T18:56:25.244Z,2.90
2023-03-05T18:57:49.290Z,3.01
2023-03-05T18:59:11.773Z,2.99
2023-03-05T19:00:37.154Z,2.94
2023-03-05T19:01:59.402Z,2.94
2023-03-05T19:03:23.137Z,2.94
2023-03-05T19:04:45.900Z,3.01
2023-03-05T19:06:09.216Z,2.97
2023-03-05T19:07:38.500Z,2.77
2023-03-05T19:09:05.848Z,3.01
2023-03-05T19:10:28.555Z,2.99
2023-03-05T19:11:51.489Z,2.94
2023-03-05T19:13:25.948Z,2.94
2023-03-05T19:14:50.875Z,2.74
2023-03-05T19:16:15.128Z,2.93
2023-03-05T19:17:37.682Z,2.71
2023-03-05T19:19:06.492Z,2.70
2023-03-05T19:20:36.028Z,2.85
2023-03-05T19:22:05.418Z,2.82
2023-03-05T19:23:30.785Z,2.76
2023-03-05T19:24:53.591Z,2.82
2023-03-05T19:26:14.890Z,2.85
2023-03-05T19:27:40.638Z,2.83
2023-03-05T19:29:03.907Z,2.84
2023-03-05T19:30:26.165Z,2.70
2023-03-05T19:31:47.530Z,2.81
2023-03-05T19:33:10.071Z,2.79
2023-03-05T19:34:35.778Z,2.74
2023-03-05T19:35:59.437Z,2.58
2023-03-05T19:37:22.775Z,2.82
2023-03-05T19:38:49.601Z,2.80
2023-03-05T19:40:14.120Z,2.80
2023-03-05T19:41:37.731Z,2.62
2023-03-05T19:43:00.310Z,2.78
2023-03-05T19:44:21.940Z,2.49
2023-03-05T19:45:44.479Z,2.75
2023-03-05T19:47:10.578Z,2.36